Time;durP1;ratioP1;P1;durP2;ratioP2;P2;SDS_P1;SDS_P2;PMS_P1;PMS_P2;Temp;Humidity;BMP_temperature;BMP_pressure;BME280_temperature;BME280_humidity;BME280_pressure;Samples;Min_cycle;Max_cycle;Signal;HPM_P1;HPM_P2
2023/02/24 00:04:58;;;;;;;11.97;10.73;;;11.80;40.00;;;;;;10362122;28;20605;-71
2023/02/24 00:10:04;;;;;;;10.87;9.83;;;11.80;40.00;;;;;;10361966;28;20230;-71
2023/02/24 00:15:08;;;;;;;11.60;10.40;;;11.70;40.30;;;;;;10360839;28;20229;-71
2023/02/24 00:20:12;;;;;;;12.77;11.03;;;11.70;40.20;;;;;;10359582;28;20230;-71
2023/02/24 00:25:17;;;;;;;12.03;10.73;;;11.70;40.30;;;;;;10363832;28;20225;-71
2023/02/24 00:30:22;;;;;;;13.87;11.70;;;11.80;40.50;;;;;;10361920;28;20233;-71
2023/02/24 00:35:25;;;;;;;12.60;11.37;;;11.80;40.30;;;;;;10361269;28;20234;-71
2023/02/24 00:40:30;;;;;;;12.07;10.83;;;11.70;40.20;;;;;;10358083;28;20715;-71
2023/02/24 00:45:37;;;;;;;13.60;12.30;;;11.70;40.60;;;;;;10362478;28;20233;-71
2023/02/24 00:50:41;;;;;;;13.83;12.53;;;11.60;40.80;;;;;;10360173;28;20241;-71
2023/02/24 00:55:45;;;;;;;13.50;12.10;;;11.60;40.60;;;;;;10361803;28;20226;-71
2023/02/24 01:00:48;;;;;;;15.37;12.80;;;11.50;41.90;;;;;;10359793;28;20230;-71
2023/02/24 01:05:52;;;;;;;13.17;11.87;;;11.40;40.80;;;;;;10358806;28;20230;-71
2023/02/24 01:16:17;;;;;;;13.87;11.10;;;11.30;41.10;;;;;;10360302;28;20583;-71
2023/02/24 01:21:21;;;;;;;13.10;11.70;;;11.30;41.10;;;;;;10359002;28;20237;-71
2023/02/24 01:26:26;;;;;;;13.77;12.47;;;11.30;41.10;;;;;;10362750;28;20241;-71
2023/02/24 01:31:29;;;;;;;13.17;11.80;;;11.20;41.00;;;;;;10357495;28;20237;-71
2023/02/24 01:36:33;;;;;;;13.17;11.87;;;11.20;41.00;;;;;;10359173;28;20240;-72
2023/02/24 01:41:38;;;;;;;11.83;10.63;;;11.20;41.30;;;;;;10361104;28;20234;-71
2023/02/24 01:46:44;;;;;;;12.70;11.43;;;11.20;41.80;;;;;;10359784;28;20714;-72
2023/02/24 01:51:51;;;;;;;13.23;11.93;;;11.20;41.70;;;;;;10359945;28;20292;-71
2023/02/24 01:56:58;;;;;;;14.37;11.47;;;11.30;42.00;;;;;;10358939;28;20226;-71
2023/02/24 02:02:05;;;;;;;12.60;11.33;;;11.30;42.20;;;;;;10357831;28;20265;-71
2023/02/24 02:07:10;;;;;;;13.00;11.60;;;11.30;41.90;;;;;;10358360;28;20915;-71
2023/02/24 02:12:15;;;;;;;12.47;11.27;;;11.20;41.60;;;;;;10356446;28;20230;-72
2023/02/24 02:17:24;;;;;;;12.83;11.50;;;11.20;42.10;;;;;;10357558;28;20618;-71
2023/02/24 02:23:00;;;;;;;11.37;10.27;;;11.20;42.40;;;;;;10359078;28;20237;-71
2023/02/24 02:28:30;;;;;;;12.63;11.30;;;11.30;43.30;;;;;;10358339;28;20317;-71
2023/02/24 02:34:10;;;;;;;11.53;10.43;;;11.30;43.30;;;;;;10357176;28;20320;-71
2023/02/24 02:39:21;;;;;;;14.70;11.37;;;11.30;43.20;;;;;;10352731;28;20234;-72
2023/02/24 02:44:31;;;;;;;11.97;10.57;;;11.40;42.60;;;;;;10358679;28;20706;-72
2023/02/24 02:49:40;;;;;;;12.03;10.83;;;11.40;42.40;;;;;;10359146;28;21044;-72
2023/02/24 02:54:48;;;;;;;11.93;10.70;;;11.40;42.90;;;;;;10357341;28;20261;-71
2023/02/24 02:59:56;;;;;;;12.20;10.43;;;11.40;42.50;;;;;;10356481;28;20953;-71
2023/02/24 03:05:03;;;;;;;12.77;11.47;;;11.40;42.40;;;;;;10362691;28;20261;-71
2023/02/24 03:10:16;;;;;;;13.70;11.60;;;11.40;42.40;;;;;;10365183;28;20218;-71
2023/02/24 03:15:22;;;;;;;12.27;10.83;;;11.40;42.30;;;;;;10364744;28;20304;-71
2023/02/24 03:20:31;;;;;;;12.90;10.83;;;11.30;42.20;;;;;;10365132;28;20238;-71
2023/02/24 03:25:43;;;;;;;11.70;10.50;;;11.30;42.80;;;;;;10363451;28;20241;-71
2023/02/24 03:30:54;;;;;;;12.03;10.83;;;11.20;42.80;;;;;;10365498;28;20591;-71
2023/02/24 03:36:00;;;;;;;10.93;9.83;;;11.20;43.10;;;;;;10363050;28;20252;-71
2023/02/24 03:41:09;;;;;;;11.93;10.63;;;11.10;43.40;;;;;;10366284;28;20345;-71
2023/02/24 03:46:15;;;;;;;11.73;10.63;;;11.10;42.40;;;;;;10365736;28;20281;-71
2023/02/24 03:51:22;;;;;;;11.73;10.27;;;11.10;42.60;;;;;;10364796;28;20239;-71
2023/02/24 03:56:33;;;;;;;12.10;9.50;;;11.10;43.00;;;;;;10362492;28;20706;-71
2023/02/24 04:01:48;;;;;;;11.90;10.63;;;11.10;43.20;;;;;;10361685;28;20226;-71
2023/02/24 04:06:57;;;;;;;11.40;9.83;;;11.10;43.70;;;;;;10359142;28;20608;-71
2023/02/24 04:12:13;;;;;;;10.90;9.80;;;11.10;43.40;;;;;;10363215;28;20226;-71
2023/02/24 04:17:20;;;;;;;11.47;9.87;;;11.10;43.80;;;;;;10360935;28;20225;-71
2023/02/24 04:22:27;;;;;;;10.63;9.63;;;11.10;43.10;;;;;;10361769;28;20269;-71
2023/02/24 04:27:30;;;;;;;10.77;9.67;;;11.20;43.30;;;;;;10361031;28;20249;-71
2023/02/24 04:32:34;;;;;;;10.43;9.43;;;11.20;42.70;;;;;;10359644;28;20218;-71
2023/02/24 04:37:43;;;;;;;10.13;9.13;;;11.20;42.90;;;;;;10360599;28;20238;-71
2023/02/24 04:42:47;;;;;;;10.53;9.53;;;11.20;43.10;;;;;;10361422;28;20236;-71
2023/02/24 04:47:55;;;;;;;10.80;9.80;;;11.20;42.60;;;;;;10363146;28;20222;-72
2023/02/24 04:53:00;;;;;;;12.77;10.57;;;11.20;42.80;;;;;;10360656;28;20978;-72
2023/02/24 04:58:04;;;;;;;9.50;8.60;;;11.20;43.10;;;;;;10361359;28;20235;-71
2023/02/24 05:03:08;;;;;;;11.37;10.13;;;11.20;42.80;;;;;;10361398;28;20233;-72
2023/02/24 05:08:14;;;;;;;13.27;11.53;;;11.20;43.00;;;;;;10362064;28;20230;-71
2023/02/24 05:13:20;;;;;;;11.60;10.40;;;11.30;43.30;;;;;;10361385;28;20237;-71
2023/02/24 05:18:23;;;;;;;11.63;10.37;;;11.20;43.80;;;;;;10359925;28;20737;-71
2023/02/24 05:23:30;;;;;;;14.17;10.83;;;11.20;42.90;;;;;;10361009;28;20266;-71
2023/02/24 05:28:33;;;;;;;12.30;11.00;;;11.20;43.40;;;;;;10357527;28;20234;-71
2023/02/24 05:33:38;;;;;;;12.00;10.70;;;11.20;42.90;;;;;;10356980;28;20230;-71
2023/02/24 05:38:43;;;;;;;12.43;11.27;;;11.20;43.30;;;;;;10359910;28;20230;-70
2023/02/24 05:43:51;;;;;;;12.67;11.20;;;11.20;43.50;;;;;;10359121;28;20239;-71
2023/02/24 05:48:56;;;;;;;13.63;11.00;;;11.20;43.40;;;;;;10358627;28;20296;-71
2023/02/24 05:54:03;;;;;;;12.63;11.30;;;11.10;43.20;;;;;;10360931;28;20225;-71
2023/02/24 05:59:09;;;;;;;13.20;11.90;;;11.10;43.70;;;;;;10354373;28;20596;-71
2023/02/24 06:04:19;;;;;;;11.43;10.33;;;11.10;43.60;;;;;;10360519;28;20234;-71
2023/02/24 06:09:24;;;;;;;12.00;10.80;;;11.10;43.60;;;;;;10357449;28;20240;-71
2023/02/24 06:14:27;;;;;;;12.07;10.53;;;11.10;43.80;;;;;;10358768;28;20226;-71
2023/02/24 06:19:32;;;;;;;12.33;10.90;;;11.10;43.50;;;;;;10357172;28;20230;-70
2023/02/24 06:24:36;;;;;;;12.67;11.37;;;11.10;43.50;;;;;;10357205;28;20240;-69
2023/02/24 06:29:41;;;;;;;12.87;11.67;;;11.00;43.80;;;;;;10355248;28;20222;-70
2023/02/24 06:34:44;;;;;;;12.30;11.10;;;11.10;43.60;;;;;;10358149;28;20237;-70
2023/02/24 06:39:49;;;;;;;15.27;13.70;;;11.00;43.50;;;;;;10358806;28;20612;-69
2023/02/24 06:44:53;;;;;;;15.63;14.03;;;11.10;44.10;;;;;;10356025;28;20233;-69
2023/02/24 06:49:56;;;;;;;16.67;14.87;;;11.00;43.80;;;;;;10358835;28;20306;-69
2023/02/24 06:55:03;;;;;;;17.27;15.47;;;11.10;44.00;;;;;;10356363;28;20242;-70
2023/02/24 07:00:15;;;;;;;22.03;18.13;;;11.10;44.60;;;;;;10352272;28;20728;-69
2023/02/24 07:05:22;;;;;;;23.17;17.93;;;11.20;44.60;;;;;;10356355;28;20229;-69
2023/02/24 07:10:28;;;;;;;23.43;20.77;;;11.20;44.30;;;;;;10354911;28;20233;-69
2023/02/24 07:15:31;;;;;;;23.17;20.33;;;11.20;44.90;;;;;;10356506;28;20317;-70
2023/02/24 07:20:42;;;;;;;22.13;19.83;;;11.30;44.50;;;;;;10354818;28;20230;-69
2023/02/24 07:25:46;;;;;;;19.40;17.47;;;11.30;44.50;;;;;;10357892;28;20226;-70
2023/02/24 07:30:51;;;;;;;20.37;17.33;;;11.40;44.90;;;;;;10355211;28;20230;-69
2023/02/24 07:35:55;;;;;;;22.60;20.07;;;11.50;44.70;;;;;;10356351;28;20230;-69
2023/02/24 07:40:59;;;;;;;24.77;21.00;;;11.50;44.60;;;;;;10356257;28;20917;-70
2023/02/24 07:46:07;;;;;;;23.57;20.17;;;11.50;44.90;;;;;;10357178;28;20238;-70
2023/02/24 07:51:14;;;;;;;21.33;18.13;;;11.60;45.40;;;;;;10359250;28;20638;-69
2023/02/24 07:56:25;;;;;;;23.70;19.80;;;11.60;44.80;;;;;;10362456;28;20235;-69
2023/02/24 08:01:37;;;;;;;22.10;19.70;;;11.60;45.10;;;;;;10363768;28;20230;-69
2023/02/24 08:06:42;;;;;;;22.97;19.13;;;11.70;44.70;;;;;;10361910;28;20310;-70
2023/02/24 08:11:53;;;;;;;22.70;18.60;;;11.70;44.70;;;;;;10362752;28;20388;-69
2023/02/24 08:16:58;;;;;;;21.57;19.27;;;11.70;45.20;;;;;;10361423;28;20237;-69
2023/02/24 08:22:18;;;;;;;21.37;18.57;;;11.80;44.90;;;;;;10362156;28;20238;-69
2023/02/24 08:27:25;;;;;;;21.40;18.10;;;11.80;44.80;;;;;;10362082;28;20345;-69
2023/02/24 08:32:32;;;;;;;20.83;18.40;;;11.90;45.20;;;;;;10359643;28;20281;-70
2023/02/24 08:37:39;;;;;;;21.00;17.57;;;11.90;44.80;;;;;;10358078;28;20308;-69
2023/02/24 08:42:43;;;;;;;20.23;18.03;;;11.90;44.60;;;;;;10361129;28;20238;-69
2023/02/24 08:47:47;;;;;;;22.00;18.63;;;12.00;45.00;;;;;;10358333;28;20227;-69
2023/02/24 08:52:50;;;;;;;24.50;18.30;;;12.00;44.80;;;;;;10360201;28;20221;-69
2023/02/24 08:57:55;;;;;;;21.53;19.33;;;12.00;44.90;;;;;;10360468;28;20226;-69
2023/02/24 09:02:58;;;;;;;20.63;18.40;;;12.10;45.30;;;;;;10359798;28;20230;-69
2023/02/24 09:08:01;;;;;;;20.50;18.50;;;12.10;45.00;;;;;;10359548;28;20234;-69
2023/02/24 09:13:07;;;;;;;21.17;18.87;;;12.10;45.00;;;;;;10359529;28;20230;-70
2023/02/24 09:18:13;;;;;;;22.97;20.07;;;12.20;45.30;;;;;;10358606;28;20321;-70
2023/02/24 09:23:19;;;;;;;21.47;19.17;;;12.20;44.90;;;;;;10357802;28;20242;-69
2023/02/24 09:28:25;;;;;;;24.00;20.17;;;12.20;44.90;;;;;;10359153;28;20241;-69
2023/02/24 09:33:37;;;;;;;24.13;20.73;;;12.20;45.40;;;;;;10357779;28;20230;-69
2023/02/24 09:44:17;;;;;;;25.80;21.57;;;12.30;45.30;;;;;;10349548;28;20238;-70
2023/02/24 09:49:23;;;;;;;25.33;21.57;;;12.30;45.50;;;;;;10354914;28;20613;-69
2023/02/24 09:54:31;;;;;;;28.70;23.07;;;12.40;45.30;;;;;;10359425;28;20604;-70
2023/02/24 09:59:59;;;;;;;27.77;22.27;;;12.40;45.50;;;;;;10359081;28;21147;-69
2023/02/24 10:05:13;;;;;;;25.73;22.10;;;12.40;45.90;;;;;;10355150;28;20631;-70
2023/02/24 10:10:19;;;;;;;24.83;22.00;;;12.50;45.60;;;;;;10356379;28;20226;-69
2023/02/24 10:20:51;;;;;;;25.60;22.73;;;12.50;45.40;;;;;;10353089;28;20227;-69
2023/02/24 10:26:02;;;;;;;26.77;22.60;;;12.50;45.10;;;;;;10358380;28;20254;-69
2023/02/24 10:31:23;;;;;;;25.60;21.10;;;12.60;45.50;;;;;;10355815;28;20228;-69
2023/02/24 10:36:34;;;;;;;24.27;21.37;;;12.60;45.60;;;;;;10356586;28;20241;-70
2023/02/24 10:41:45;;;;;;;24.30;21.13;;;12.70;45.90;;;;;;10357455;28;20230;-69
2023/02/24 10:47:10;;;;;;;26.17;21.57;;;12.70;45.70;;;;;;10355869;28;20821;-69
2023/02/24 10:52:32;;;;;;;24.47;21.23;;;12.80;45.80;;;;;;10336464;28;20319;-70
2023/02/24 10:57:48;;;;;;;28.37;21.53;;;12.90;45.10;;;;;;10336539;28;20765;-69
2023/02/24 11:03:13;;;;;;;24.30;21.07;;;13.00;45.10;;;;;;10324927;28;20420;-70
2023/02/24 11:08:38;;;;;;;24.43;20.50;;;13.00;44.90;;;;;;10354110;28;20331;-69
2023/02/24 11:19:12;;;;;;;22.97;19.37;;;13.10;45.10;;;;;;10354089;28;20686;-69
2023/02/24 11:24:18;;;;;;;24.97;20.00;;;13.10;44.70;;;;;;10357400;28;20735;-69
2023/02/24 11:29:38;;;;;;;22.17;19.77;;;13.00;44.70;;;;;;10361102;28;20238;-69
2023/02/24 11:34:51;;;;;;;21.43;19.07;;;13.10;45.20;;;;;;10360876;28;20221;-70
2023/02/24 11:39:59;;;;;;;21.63;18.87;;;13.10;44.90;;;;;;10362031;28;20223;-69
2023/02/24 11:45:11;;;;;;;22.23;18.30;;;13.20;44.70;;;;;;10363563;28;20741;-70
2023/02/24 11:50:38;;;;;;;23.37;19.77;;;13.20;44.40;;;;;;10362515;28;20948;-69
2023/02/24 11:55:45;;;;;;;23.83;19.63;;;13.20;44.60;;;;;;10363530;28;20242;-69
2023/02/24 12:00:55;;;;;;;23.03;19.57;;;13.20;44.30;;;;;;10361221;28;20234;-69
2023/02/24 12:06:09;;;;;;;24.57;20.40;;;13.20;44.50;;;;;;10361912;28;20241;-70
2023/02/24 12:11:19;;;;;;;24.77;21.03;;;13.20;44.70;;;;;;10359540;28;20697;-69
2023/02/24 12:16:29;;;;;;;24.57;21.07;;;13.20;44.50;;;;;;10361118;28;20234;-70
2023/02/24 12:21:38;;;;;;;27.30;21.23;;;13.30;44.50;;;;;;10360390;28;20230;-69
2023/02/24 12:26:47;;;;;;;30.23;22.50;;;13.30;44.30;;;;;;10360705;28;20226;-69
2023/02/24 12:32:00;;;;;;;26.37;22.00;;;13.20;44.30;;;;;;10359967;28;20222;-69
2023/02/24 12:37:29;;;;;;;28.60;22.67;;;13.10;44.50;;;;;;10360730;28;20222;-70
2023/02/24 12:42:41;;;;;;;28.53;23.43;;;13.20;44.80;;;;;;10361876;28;20238;-69
2023/02/24 12:47:56;;;;;;;27.70;22.57;;;13.20;44.80;;;;;;10358010;28;20521;-69
2023/02/24 12:53:09;;;;;;;26.03;22.20;;;13.20;44.60;;;;;;10361975;28;20218;-69
2023/02/24 12:58:17;;;;;;;28.57;21.60;;;13.20;44.60;;;;;;10356010;28;20226;-69
2023/02/24 13:03:34;;;;;;;24.90;21.20;;;13.30;44.40;;;;;;10358320;28;20237;-69
2023/02/24 13:08:49;;;;;;;28.27;22.27;;;13.30;44.50;;;;;;10358132;28;20240;-69
2023/02/24 13:14:00;;;;;;;27.70;22.40;;;13.40;44.40;;;;;;10359529;28;20222;-69
2023/02/24 13:19:19;;;;;;;33.77;26.70;;;13.40;44.50;;;;;;10358411;28;20225;-69
2023/02/24 13:24:25;;;;;;;25.40;21.27;;;13.40;44.40;;;;;;10351383;28;20241;-69
2023/02/24 13:29:28;;;;;;;24.77;20.60;;;13.50;44.30;;;;;;10355913;28;20706;-69
2023/02/24 13:34:33;;;;;;;25.13;19.20;;;13.60;44.30;;;;;;10359394;28;20222;-70
2023/02/24 13:39:40;;;;;;;21.07;17.33;;;13.60;44.00;;;;;;10357546;28;20608;-69
2023/02/24 13:44:49;;;;;;;24.73;16.87;;;13.70;44.30;;;;;;10358324;28;20661;-69
2023/02/24 13:50:08;;;;;;;23.40;18.47;;;13.70;44.00;;;;;;10357844;28;20222;-69
2023/02/24 13:55:40;;;;;;;22.20;17.70;;;13.80;43.90;;;;;;10357844;28;20236;-69
2023/02/24 14:00:57;;;;;;;24.93;16.67;;;13.80;43.60;;;;;;10358356;28;20226;-69
2023/02/24 14:06:01;;;;;;;20.50;16.40;;;13.80;43.70;;;;;;10353992;28;20226;-69
2023/02/24 14:11:12;;;;;;;21.37;15.83;;;13.90;43.40;;;;;;10354869;28;20222;-69
2023/02/24 14:16:20;;;;;;;21.80;15.77;;;14.00;43.40;;;;;;10356340;28;20233;-68
2023/02/24 14:21:25;;;;;;;21.70;16.10;;;14.00;43.40;;;;;;10354912;28;20740;-68
2023/02/24 14:26:41;;;;;;;20.97;14.60;;;14.00;43.50;;;;;;10353354;28;20595;-68
2023/02/24 14:31:47;;;;;;;18.67;13.53;;;14.00;43.40;;;;;;10355374;28;20249;-68
2023/02/24 14:36:53;;;;;;;18.57;13.23;;;14.00;43.40;;;;;;10358306;28;20940;-69
2023/02/24 14:42:11;;;;;;;15.30;11.63;;;14.00;43.40;;;;;;10355168;28;20233;-68
2023/02/24 14:47:16;;;;;;;19.97;13.57;;;14.10;43.20;;;;;;10356317;28;20236;-69
2023/02/24 14:52:32;;;;;;;15.70;12.20;;;14.10;43.10;;;;;;10354445;28;20230;-68
2023/02/24 14:57:42;;;;;;;19.60;12.57;;;14.10;42.90;;;;;;10356471;28;20229;-68
2023/02/24 15:02:50;;;;;;;16.40;11.07;;;14.10;42.90;;;;;;10362627;28;20234;-68
2023/02/24 15:07:53;;;;;;;17.87;11.57;;;14.00;42.80;;;;;;10361006;28;20238;-68
2023/02/24 15:13:01;;;;;;;16.43;11.00;;;14.10;43.20;;;;;;10365679;28;20222;-68
2023/02/24 15:18:12;;;;;;;17.87;11.37;;;14.10;42.90;;;;;;10362965;28;20579;-69
2023/02/24 15:23:28;;;;;;;15.30;11.27;;;14.10;42.50;;;;;;10362456;28;20238;-68
2023/02/24 15:28:35;;;;;;;19.80;10.53;;;14.10;42.40;;;;;;10359181;28;20645;-68
2023/02/24 15:33:40;;;;;;;19.53;9.67;;;14.10;42.30;;;;;;10362903;28;20230;-68
2023/02/24 15:38:45;;;;;;;15.50;8.87;;;14.10;42.30;;;;;;10361172;28;20248;-68
2023/02/24 15:43:54;;;;;;;15.60;8.17;;;14.10;42.20;;;;;;10364856;28;20230;-68
2023/02/24 15:49:01;;;;;;;14.23;8.43;;;14.10;42.00;;;;;;10363455;28;20240;-68
2023/02/24 15:54:08;;;;;;;12.90;8.17;;;14.00;42.20;;;;;;10362436;28;20691;-68
2023/02/24 15:59:14;;;;;;;19.10;8.37;;;14.00;41.80;;;;;;10361407;28;20231;-68
2023/02/24 16:04:18;;;;;;;14.17;8.33;;;14.00;41.80;;;;;;10365075;28;20241;-68
2023/02/24 16:09:26;;;;;;;17.33;9.70;;;14.00;42.10;;;;;;10363995;28;20268;-69
2023/02/24 16:14:32;;;;;;;14.30;9.07;;;13.90;41.80;;;;;;10362125;28;20226;-68
2023/02/24 16:19:36;;;;;;;12.90;9.00;;;13.90;41.90;;;;;;10360579;28;20230;-68
2023/02/24 16:24:40;;;;;;;14.17;8.73;;;13.80;42.20;;;;;;10360309;28;21171;-68
2023/02/24 16:29:45;;;;;;;13.37;8.60;;;13.80;42.10;;;;;;10359235;28;20882;-68
2023/02/24 16:34:48;;;;;;;13.57;10.00;;;13.80;42.10;;;;;;10362457;28;20223;-68
2023/02/24 16:39:51;;;;;;;14.50;9.07;;;13.80;42.20;;;;;;10360951;28;20223;-68
2023/02/24 16:44:56;;;;;;;14.13;9.97;;;13.80;42.40;;;;;;10360996;28;20321;-68
2023/02/24 16:49:59;;;;;;;15.37;10.43;;;13.70;42.30;;;;;;10360072;28;20233;-68
2023/02/24 16:55:02;;;;;;;18.53;9.67;;;13.80;42.50;;;;;;10359856;28;20226;-69
2023/02/24 17:00:08;;;;;;;16.83;9.73;;;13.80;42.40;;;;;;10360828;28;20253;-68
2023/02/24 17:05:18;;;;;;;17.53;12.57;;;13.80;42.50;;;;;;10359765;28;20223;-68
2023/02/24 17:10:23;;;;;;;20.13;13.70;;;13.80;42.50;;;;;;10357802;28;20288;-68
2023/02/24 17:15:27;;;;;;;16.83;13.40;;;13.70;42.30;;;;;;10359812;28;20862;-68
2023/02/24 17:20:30;;;;;;;20.40;13.57;;;13.60;42.40;;;;;;10358324;28;20226;-68
2023/02/24 17:25:34;;;;;;;20.37;13.03;;;13.60;42.40;;;;;;10358155;28;20706;-68
2023/02/24 17:30:38;;;;;;;18.43;11.87;;;13.60;42.70;;;;;;10356516;28;20222;-68
2023/02/24 17:35:42;;;;;;;20.30;13.30;;;13.50;43.00;;;;;;10358738;28;20226;-68
2023/02/24 17:40:46;;;;;;;21.27;13.87;;;13.50;43.00;;;;;;10360105;28;20225;-68
2023/02/24 17:45:51;;;;;;;16.53;12.37;;;13.40;42.90;;;;;;10358321;28;20229;-68
2023/02/24 17:50:55;;;;;;;20.17;14.17;;;13.40;42.90;;;;;;10355919;28;20226;-68
2023/02/24 17:56:02;;;;;;;19.43;14.27;;;13.40;42.90;;;;;;10360414;28;20241;-68
2023/02/24 18:01:07;;;;;;;15.40;13.33;;;13.40;42.90;;;;;;10314543;28;20242;-68
2023/02/24 18:06:12;;;;;;;17.13;12.53;;;13.40;42.90;;;;;;10316703;28;20242;-69
2023/02/24 18:11:16;;;;;;;17.83;12.13;;;13.40;42.90;;;;;;10314360;28;20227;-68
2023/02/24 18:16:21;;;;;;;17.97;12.87;;;13.40;42.90;;;;;;10315275;28;20235;-68
2023/02/24 18:21:25;;;;;;;17.43;11.17;;;13.40;42.90;;;;;;10317205;28;20322;-68
2023/02/24 18:26:28;;;;;;;19.07;11.53;;;13.40;42.90;;;;;;10317797;28;20270;-68
2023/02/24 18:31:33;;;;;;;18.20;11.77;;;13.30;42.80;;;;;;10314363;28;20234;-68
2023/02/24 18:36:36;;;;;;;20.43;13.23;;;13.30;42.80;;;;;;10316221;28;20281;-68
2023/02/24 18:41:40;;;;;;;21.43;13.17;;;13.20;42.70;;;;;;10317665;28;20726;-68
2023/02/24 18:46:44;;;;;;;20.23;12.70;;;13.00;42.60;;;;;;10315679;28;20723;-68
2023/02/24 18:51:48;;;;;;;18.37;12.17;;;12.90;43.00;;;;;;10315626;28;20338;-68
2023/02/24 18:56:52;;;;;;;19.30;12.70;;;12.80;42.90;;;;;;10317660;28;20235;-68
2023/02/24 19:01:56;;;;;;;15.17;11.73;;;12.70;43.10;;;;;;10316679;28;20632;-68
2023/02/24 19:07:00;;;;;;;16.87;11.87;;;12.60;43.60;;;;;;10313206;28;20686;-68
2023/02/24 19:12:03;;;;;;;16.17;10.87;;;12.50;43.30;;;;;;10347458;28;20265;-68
2023/02/24 19:17:07;;;;;;;14.67;10.97;;;12.30;43.20;;;;;;10356159;28;20222;-68
2023/02/24 19:22:10;;;;;;;15.33;10.50;;;12.30;43.50;;;;;;10357747;28;20226;-68
2023/02/24 19:27:14;;;;;;;13.50;8.47;;;12.20;43.30;;;;;;10355565;28;20317;-68
2023/02/24 19:32:18;;;;;;;13.57;7.57;;;12.10;43.00;;;;;;10351104;28;20226;-68
2023/02/24 19:37:21;;;;;;;10.33;6.60;;;12.00;43.30;;;;;;10356770;28;20312;-68
2023/02/24 19:42:25;;;;;;;11.50;5.80;;;12.00;43.10;;;;;;10358869;28;20253;-68
2023/02/24 19:47:29;;;;;;;9.53;5.50;;;11.90;43.10;;;;;;10363291;28;20281;-68
2023/02/24 19:52:32;;;;;;;8.27;5.00;;;11.80;43.40;;;;;;10364465;28;20698;-68
2023/02/24 19:57:36;;;;;;;9.17;4.70;;;11.70;43.40;;;;;;10361068;28;20230;-68
2023/02/24 20:02:41;;;;;;;8.30;4.60;;;11.60;43.50;;;;;;10364395;28;20234;-68
2023/02/24 20:07:44;;;;;;;9.10;4.63;;;11.60;43.70;;;;;;10361048;28;20229;-68
2023/02/24 20:12:47;;;;;;;7.63;4.43;;;11.50;43.40;;;;;;10363599;28;20234;-68
2023/02/24 20:17:51;;;;;;;6.40;4.47;;;11.50;43.60;;;;;;10364149;28;20223;-68
2023/02/24 20:22:54;;;;;;;7.83;4.13;;;11.40;43.70;;;;;;10363647;28;20593;-68
2023/02/24 20:27:57;;;;;;;5.43;4.40;;;11.40;43.70;;;;;;10358104;28;20230;-68
2023/02/24 20:33:02;;;;;;;5.93;4.03;;;11.30;43.70;;;;;;10360710;28;20625;-68
2023/02/24 20:38:05;;;;;;;5.30;3.57;;;11.20;43.60;;;;;;10362261;28;20233;-68
2023/02/24 20:43:10;;;;;;;6.30;4.00;;;11.20;43.50;;;;;;10359049;28;21042;-68
2023/02/24 20:48:14;;;;;;;5.73;4.40;;;11.20;43.60;;;;;;10365117;28;20226;-68
2023/02/24 20:53:17;;;;;;;5.57;4.20;;;11.10;43.70;;;;;;10361123;28;20226;-68
2023/02/24 20:58:20;;;;;;;4.50;4.07;;;11.10;43.60;;;;;;10360310;28;20237;-68
2023/02/24 21:03:25;;;;;;;6.10;4.60;;;11.10;43.70;;;;;;10362158;28;20230;-68
2023/02/24 21:08:28;;;;;;;4.97;4.23;;;11.00;43.70;;;;;;10359426;28;20241;-68
2023/02/24 21:13:31;;;;;;;6.87;5.43;;;10.90;43.70;;;;;;10358994;28;20234;-68
2023/02/24 21:18:37;;;;;;;7.33;5.47;;;10.90;43.90;;;;;;10360880;28;20245;-68
2023/02/24 21:23:40;;;;;;;6.70;5.73;;;10.80;44.10;;;;;;10358193;28;20237;-68
2023/02/24 21:28:43;;;;;;;8.63;6.67;;;10.80;44.10;;;;;;10358956;28;20230;-70
2023/02/24 21:33:51;;;;;;;9.50;8.17;;;10.70;44.00;;;;;;10362279;28;20234;-71
2023/02/24 21:38:55;;;;;;;12.30;9.33;;;10.70;44.00;;;;;;10361659;28;20253;-70
2023/02/24 21:43:59;;;;;;;13.53;10.93;;;10.70;43.60;;;;;;10359928;28;20219;-71
2023/02/24 21:49:03;;;;;;;14.93;11.43;;;10.60;43.30;;;;;;10359302;28;20226;-71
2023/02/24 21:54:07;;;;;;;14.03;11.03;;;10.50;42.90;;;;;;10359628;28;20229;-70
2023/02/24 21:59:11;;;;;;;14.50;10.93;;;10.30;43.10;;;;;;10360799;28;20261;-70
2023/02/24 22:04:19;;;;;;;15.07;10.57;;;10.20;42.70;;;;;;10359490;28;20631;-72
2023/02/24 22:09:22;;;;;;;12.87;9.77;;;10.10;42.60;;;;;;10359346;28;20249;-71
2023/02/24 22:14:25;;;;;;;11.97;9.80;;;10.00;42.50;;;;;;10359052;28;20729;-73
2023/02/24 22:19:29;;;;;;;14.93;9.80;;;9.90;43.60;;;;;;10358277;28;20226;-72
2023/02/24 22:24:33;;;;;;;12.90;9.90;;;9.90;43.60;;;;;;10357188;28;20578;-72
2023/02/24 22:29:36;;;;;;;10.00;6.97;;;9.80;43.60;;;;;;10357071;28;20230;-72
2023/02/24 22:34:40;;;;;;;5.47;4.70;;;9.80;43.40;;;;;;10359148;28;20592;-70
2023/02/24 22:39:43;;;;;;;4.50;4.03;;;9.60;43.30;;;;;;10355646;28;20226;-70
2023/02/24 22:44:47;;;;;;;3.83;3.30;;;9.40;43.40;;;;;;10358500;28;20226;-70
2023/02/24 22:49:51;;;;;;;3.03;2.10;;;9.30;43.30;;;;;;10359341;28;20275;-70
2023/02/24 22:54:54;;;;;;;1.77;1.30;;;9.00;42.70;;;;;;10358059;28;20241;-72
2023/02/24 22:59:57;;;;;;;1.20;1.10;;;8.80;43.00;;;;;;10357282;28;20229;-70
2023/02/24 23:05:02;;;;;;;1.20;1.10;;;8.60;43.30;;;;;;10357217;28;20229;-70
2023/02/24 23:10:06;;;;;;;1.03;1.03;;;8.50;43.50;;;;;;10355323;28;20436;-70
2023/02/24 23:15:10;;;;;;;1.37;1.23;;;8.40;43.50;;;;;;10357838;28;20230;-70
2023/02/24 23:20:15;;;;;;;1.30;1.20;;;8.40;43.80;;;;;;10358044;28;20230;-70
2023/02/24 23:25:18;;;;;;;1.40;1.30;;;8.40;43.80;;;;;;10362622;28;20240;-70
2023/02/24 23:30:21;;;;;;;1.30;1.20;;;8.40;43.70;;;;;;10363426;28;20241;-70
2023/02/24 23:35:26;;;;;;;1.60;1.10;;;8.40;43.80;;;;;;10365400;28;20234;-70
2023/02/24 23:40:31;;;;;;;0.97;0.97;;;8.50;43.60;;;;;;10365019;28;20684;-70
2023/02/24 23:45:51;;;;;;;0.90;0.73;;;8.50;43.50;;;;;;10364937;28;20654;-73
2023/02/24 23:50:56;;;;;;;2.43;1.13;;;8.50;43.60;;;;;;10363142;28;20340;-72
2023/02/24 23:55:59;;;;;;;1.20;1.10;;;8.50;43.50;;;;;;10364763;28;20684;-70
